sensor_id;sensor_type;location;lat;lon;timestamp;P1;durP1;ratioP1;P2;durP2;ratioP2
15526;SDS011;7865;50.918;4.510;2023-05-10T00:03:39;19.80;;;9.77;;
15526;SDS011;7865;50.918;4.510;2023-05-10T00:08:41;23.37;;;11.27;;
15526;SDS011;7865;50.918;4.510;2023-05-10T00:13:42;19.20;;;10.47;;
15526;SDS011;7865;50.918;4.510;2023-05-10T00:18:43;23.47;;;11.87;;
15526;SDS011;7865;50.918;4.510;2023-05-10T00:23:45;19.43;;;12.20;;
15526;SDS011;7865;50.918;4.510;2023-05-10T00:28:46;23.70;;;11.50;;
15526;SDS011;7865;50.918;4.510;2023-05-10T00:33:48;24.43;;;12.43;;
15526;SDS011;7865;50.918;4.510;2023-05-10T00:38:49;24.70;;;12.93;;
15526;SDS011;7865;50.918;4.510;2023-05-10T00:43:51;25.10;;;13.60;;
15526;SDS011;7865;50.918;4.510;2023-05-10T00:48:53;28.97;;;15.40;;
15526;SDS011;7865;50.918;4.510;2023-05-10T00:53:54;27.93;;;14.87;;
15526;SDS011;7865;50.918;4.510;2023-05-10T00:58:57;23.73;;;13.67;;
15526;SDS011;7865;50.918;4.510;2023-05-10T01:03:58;26.17;;;14.40;;
15526;SDS011;7865;50.918;4.510;2023-05-10T01:09:00;25.57;;;13.90;;
15526;SDS011;7865;50.918;4.510;2023-05-10T01:14:03;35.30;;;15.90;;
15526;SDS011;7865;50.918;4.510;2023-05-10T01:35:03;31.57;;;15.17;;
15526;SDS011;7865;50.918;4.510;2023-05-10T01:40:30;29.23;;;16.17;;
15526;SDS011;7865;50.918;4.510;2023-05-10T01:45:39;30.30;;;15.70;;
15526;SDS011;7865;50.918;4.510;2023-05-10T01:50:47;29.20;;;16.17;;
15526;SDS011;7865;50.918;4.510;2023-05-10T01:55:52;28.43;;;16.60;;
15526;SDS011;7865;50.918;4.510;2023-05-10T02:00:56;27.90;;;16.60;;
15526;SDS011;7865;50.918;4.510;2023-05-10T02:06:01;28.87;;;17.00;;
15526;SDS011;7865;50.918;4.510;2023-05-10T02:11:04;31.47;;;16.47;;
15526;SDS011;7865;50.918;4.510;2023-05-10T02:16:06;28.60;;;17.87;;
15526;SDS011;7865;50.918;4.510;2023-05-10T02:21:09;34.40;;;18.27;;
15526;SDS011;7865;50.918;4.510;2023-05-10T02:26:13;30.30;;;17.60;;
15526;SDS011;7865;50.918;4.510;2023-05-10T02:31:16;29.43;;;15.93;;
15526;SDS011;7865;50.918;4.510;2023-05-10T02:36:18;36.73;;;19.07;;
15526;SDS011;7865;50.918;4.510;2023-05-10T02:41:21;32.53;;;17.73;;
15526;SDS011;7865;50.918;4.510;2023-05-10T02:46:24;32.87;;;17.53;;
15526;SDS011;7865;50.918;4.510;2023-05-10T02:51:28;34.23;;;18.37;;
15526;SDS011;7865;50.918;4.510;2023-05-10T02:56:33;35.93;;;18.50;;
15526;SDS011;7865;50.918;4.510;2023-05-10T03:01:36;32.27;;;18.07;;
15526;SDS011;7865;50.918;4.510;2023-05-10T03:06:38;34.87;;;17.53;;
15526;SDS011;7865;50.918;4.510;2023-05-10T03:22:51;32.43;;;17.70;;
15526;SDS011;7865;50.918;4.510;2023-05-10T03:27:56;38.10;;;18.13;;
15526;SDS011;7865;50.918;4.510;2023-05-10T03:33:03;38.20;;;19.07;;
15526;SDS011;7865;50.918;4.510;2023-05-10T03:38:09;36.13;;;19.00;;
15526;SDS011;7865;50.918;4.510;2023-05-10T03:43:10;39.13;;;21.10;;
15526;SDS011;7865;50.918;4.510;2023-05-10T03:48:12;41.93;;;19.87;;
15526;SDS011;7865;50.918;4.510;2023-05-10T03:53:15;44.93;;;20.90;;
15526;SDS011;7865;50.918;4.510;2023-05-10T03:58:17;36.13;;;20.63;;
15526;SDS011;7865;50.918;4.510;2023-05-10T04:03:19;36.93;;;18.23;;
15526;SDS011;7865;50.918;4.510;2023-05-10T04:08:21;36.67;;;20.80;;
15526;SDS011;7865;50.918;4.510;2023-05-10T04:13:22;40.40;;;21.30;;
15526;SDS011;7865;50.918;4.510;2023-05-10T04:18:24;40.87;;;21.70;;
15526;SDS011;7865;50.918;4.510;2023-05-10T04:23:26;44.00;;;22.13;;
15526;SDS011;7865;50.918;4.510;2023-05-10T04:28:28;49.33;;;22.67;;
15526;SDS011;7865;50.918;4.510;2023-05-10T04:33:30;46.90;;;23.43;;
15526;SDS011;7865;50.918;4.510;2023-05-10T04:38:31;51.77;;;23.57;;
15526;SDS011;7865;50.918;4.510;2023-05-10T04:43:33;51.30;;;24.13;;
15526;SDS011;7865;50.918;4.510;2023-05-10T04:48:34;48.97;;;23.37;;
15526;SDS011;7865;50.918;4.510;2023-05-10T04:53:36;55.50;;;25.13;;
15526;SDS011;7865;50.918;4.510;2023-05-10T04:58:37;54.37;;;25.27;;
15526;SDS011;7865;50.918;4.510;2023-05-10T05:03:39;49.20;;;23.67;;
15526;SDS011;7865;50.918;4.510;2023-05-10T05:08:41;51.80;;;24.73;;
15526;SDS011;7865;50.918;4.510;2023-05-10T05:13:42;53.93;;;27.10;;
15526;SDS011;7865;50.918;4.510;2023-05-10T05:18:44;60.17;;;26.80;;
15526;SDS011;7865;50.918;4.510;2023-05-10T05:23:45;50.40;;;24.40;;
15526;SDS011;7865;50.918;4.510;2023-05-10T05:28:47;57.03;;;26.70;;
15526;SDS011;7865;50.918;4.510;2023-05-10T05:33:49;56.97;;;25.47;;
15526;SDS011;7865;50.918;4.510;2023-05-10T05:38:51;53.07;;;25.00;;
15526;SDS011;7865;50.918;4.510;2023-05-10T05:43:52;45.13;;;23.23;;
15526;SDS011;7865;50.918;4.510;2023-05-10T05:48:53;53.70;;;25.23;;
15526;SDS011;7865;50.918;4.510;2023-05-10T05:53:55;50.40;;;24.67;;
15526;SDS011;7865;50.918;4.510;2023-05-10T05:58:56;55.10;;;24.53;;
15526;SDS011;7865;50.918;4.510;2023-05-10T06:03:58;54.23;;;25.13;;
15526;SDS011;7865;50.918;4.510;2023-05-10T06:08:59;49.03;;;23.50;;
15526;SDS011;7865;50.918;4.510;2023-05-10T06:14:01;45.63;;;23.85;;
15526;SDS011;7865;50.918;4.510;2023-05-10T06:19:02;53.30;;;25.33;;
15526;SDS011;7865;50.918;4.510;2023-05-10T06:24:04;45.40;;;23.95;;
15526;SDS011;7865;50.918;4.510;2023-05-10T06:29:07;40.58;;;23.02;;
15526;SDS011;7865;50.918;4.510;2023-05-10T06:34:09;48.83;;;23.90;;
15526;SDS011;7865;50.918;4.510;2023-05-10T06:39:10;41.27;;;22.43;;
15526;SDS011;7865;50.918;4.510;2023-05-10T06:44:12;39.40;;;22.63;;
15526;SDS011;7865;50.918;4.510;2023-05-10T06:49:14;31.17;;;20.40;;
15526;SDS011;7865;50.918;4.510;2023-05-10T06:54:15;35.35;;;20.58;;
15526;SDS011;7865;50.918;4.510;2023-05-10T06:59:16;35.45;;;20.80;;
15526;SDS011;7865;50.918;4.510;2023-05-10T07:04:19;37.42;;;22.65;;
15526;SDS011;7865;50.918;4.510;2023-05-10T07:09:21;40.95;;;22.23;;
15526;SDS011;7865;50.918;4.510;2023-05-10T07:14:22;40.78;;;23.80;;
15526;SDS011;7865;50.918;4.510;2023-05-10T07:19:24;32.70;;;21.00;;
15526;SDS011;7865;50.918;4.510;2023-05-10T07:24:25;26.08;;;14.07;;
15526;SDS011;7865;50.918;4.510;2023-05-10T07:29:26;28.63;;;17.20;;
15526;SDS011;7865;50.918;4.510;2023-05-10T07:34:28;28.85;;;17.40;;
15526;SDS011;7865;50.918;4.510;2023-05-10T07:39:31;30.52;;;18.25;;
15526;SDS011;7865;50.918;4.510;2023-05-10T07:44:32;30.10;;;17.10;;
15526;SDS011;7865;50.918;4.510;2023-05-10T07:49:33;29.23;;;16.15;;
15526;SDS011;7865;50.918;4.510;2023-05-10T07:54:35;30.40;;;16.55;;
15526;SDS011;7865;50.918;4.510;2023-05-10T07:59:36;25.50;;;15.52;;
15526;SDS011;7865;50.918;4.510;2023-05-10T08:04:37;28.63;;;16.00;;
15526;SDS011;7865;50.918;4.510;2023-05-10T08:09:39;31.02;;;16.52;;
15526;SDS011;7865;50.918;4.510;2023-05-10T08:14:40;25.85;;;15.13;;
15526;SDS011;7865;50.918;4.510;2023-05-10T08:19:42;30.77;;;14.00;;
15526;SDS011;7865;50.918;4.510;2023-05-10T08:24:43;26.02;;;13.82;;
15526;SDS011;7865;50.918;4.510;2023-05-10T08:29:45;25.13;;;14.13;;
15526;SDS011;7865;50.918;4.510;2023-05-10T08:34:51;31.25;;;14.35;;
15526;SDS011;7865;50.918;4.510;2023-05-10T08:39:52;27.40;;;14.50;;
15526;SDS011;7865;50.918;4.510;2023-05-10T08:44:54;21.10;;;12.93;;
15526;SDS011;7865;50.918;4.510;2023-05-10T08:49:57;23.00;;;12.50;;
15526;SDS011;7865;50.918;4.510;2023-05-10T08:55:00;21.02;;;11.85;;
15526;SDS011;7865;50.918;4.510;2023-05-10T09:00:01;19.58;;;11.50;;
15526;SDS011;7865;50.918;4.510;2023-05-10T09:05:05;19.10;;;11.85;;
15526;SDS011;7865;50.918;4.510;2023-05-10T09:10:07;20.17;;;12.07;;
15526;SDS011;7865;50.918;4.510;2023-05-10T09:15:10;17.15;;;11.40;;
15526;SDS011;7865;50.918;4.510;2023-05-10T09:20:12;17.60;;;11.30;;
15526;SDS011;7865;50.918;4.510;2023-05-10T09:25:14;15.00;;;10.25;;
15526;SDS011;7865;50.918;4.510;2023-05-10T09:30:17;14.00;;;9.85;;
15526;SDS011;7865;50.918;4.510;2023-05-10T09:35:26;15.35;;;10.18;;
15526;SDS011;7865;50.918;4.510;2023-05-10T09:40:31;13.75;;;8.65;;
15526;SDS011;7865;50.918;4.510;2023-05-10T09:45:33;17.10;;;10.70;;
15526;SDS011;7865;50.918;4.510;2023-05-10T09:50:39;15.73;;;9.20;;
15526;SDS011;7865;50.918;4.510;2023-05-10T09:55:42;11.50;;;8.05;;
15526;SDS011;7865;50.918;4.510;2023-05-10T10:00:46;10.38;;;7.25;;
15526;SDS011;7865;50.918;4.510;2023-05-10T10:05:53;11.23;;;6.57;;
15526;SDS011;7865;50.918;4.510;2023-05-10T10:10:56;9.75;;;5.85;;
15526;SDS011;7865;50.918;4.510;2023-05-10T10:16:01;10.38;;;6.18;;
15526;SDS011;7865;50.918;4.510;2023-05-10T10:21:03;7.53;;;5.60;;
15526;SDS011;7865;50.918;4.510;2023-05-10T10:26:04;7.85;;;6.00;;
15526;SDS011;7865;50.918;4.510;2023-05-10T10:36:40;7.35;;;6.43;;
15526;SDS011;7865;50.918;4.510;2023-05-10T10:57:21;7.50;;;6.20;;
15526;SDS011;7865;50.918;4.510;2023-05-10T11:07:53;9.90;;;6.63;;
15526;SDS011;7865;50.918;4.510;2023-05-10T11:13:00;8.20;;;6.28;;
15526;SDS011;7865;50.918;4.510;2023-05-10T11:18:18;7.55;;;6.07;;
15526;SDS011;7865;50.918;4.510;2023-05-10T11:23:22;9.75;;;6.72;;
15526;SDS011;7865;50.918;4.510;2023-05-10T11:28:23;6.80;;;5.35;;
15526;SDS011;7865;50.918;4.510;2023-05-10T11:33:26;6.45;;;5.38;;
15526;SDS011;7865;50.918;4.510;2023-05-10T11:38:28;7.28;;;5.63;;
15526;SDS011;7865;50.918;4.510;2023-05-10T11:43:29;8.07;;;5.65;;
15526;SDS011;7865;50.918;4.510;2023-05-10T11:48:31;9.63;;;5.72;;
15526;SDS011;7865;50.918;4.510;2023-05-10T11:53:33;8.52;;;6.47;;
15526;SDS011;7865;50.918;4.510;2023-05-10T11:58:35;7.45;;;5.82;;
15526;SDS011;7865;50.918;4.510;2023-05-10T12:03:37;9.18;;;6.03;;
15526;SDS011;7865;50.918;4.510;2023-05-10T12:08:43;6.55;;;5.50;;
15526;SDS011;7865;50.918;4.510;2023-05-10T12:13:46;6.43;;;5.65;;
15526;SDS011;7865;50.918;4.510;2023-05-10T12:18:49;7.43;;;5.72;;
15526;SDS011;7865;50.918;4.510;2023-05-10T12:23:56;7.88;;;6.18;;
15526;SDS011;7865;50.918;4.510;2023-05-10T12:29:17;8.50;;;5.95;;
15526;SDS011;7865;50.918;4.510;2023-05-10T12:34:26;6.05;;;5.45;;
15526;SDS011;7865;50.918;4.510;2023-05-10T12:39:38;10.73;;;6.40;;
15526;SDS011;7865;50.918;4.510;2023-05-10T12:44:40;7.32;;;6.15;;
15526;SDS011;7865;50.918;4.510;2023-05-10T12:49:42;7.78;;;6.03;;
15526;SDS011;7865;50.918;4.510;2023-05-10T12:54:43;6.60;;;4.97;;
15526;SDS011;7865;50.918;4.510;2023-05-10T12:59:44;6.45;;;5.15;;
15526;SDS011;7865;50.918;4.510;2023-05-10T13:04:46;6.28;;;5.68;;
15526;SDS011;7865;50.918;4.510;2023-05-10T13:09:50;7.07;;;6.38;;
15526;SDS011;7865;50.918;4.510;2023-05-10T13:14:52;6.55;;;5.95;;
15526;SDS011;7865;50.918;4.510;2023-05-10T13:19:53;8.13;;;5.70;;
15526;SDS011;7865;50.918;4.510;2023-05-10T13:24:54;7.57;;;6.88;;
15526;SDS011;7865;50.918;4.510;2023-05-10T13:29:56;7.10;;;5.68;;
15526;SDS011;7865;50.918;4.510;2023-05-10T13:35:00;8.00;;;6.35;;
15526;SDS011;7865;50.918;4.510;2023-05-10T13:40:02;6.80;;;5.80;;
15526;SDS011;7865;50.918;4.510;2023-05-10T13:45:05;6.18;;;4.30;;
15526;SDS011;7865;50.918;4.510;2023-05-10T13:50:07;5.65;;;4.80;;
15526;SDS011;7865;50.918;4.510;2023-05-10T13:55:09;4.20;;;3.80;;
15526;SDS011;7865;50.918;4.510;2023-05-10T14:00:16;5.93;;;4.78;;
15526;SDS011;7865;50.918;4.510;2023-05-10T14:05:17;5.32;;;4.82;;
15526;SDS011;7865;50.918;4.510;2023-05-10T14:10:22;8.43;;;5.53;;
15526;SDS011;7865;50.918;4.510;2023-05-10T14:15:24;6.88;;;5.07;;
15526;SDS011;7865;50.918;4.510;2023-05-10T14:20:25;7.22;;;5.50;;
15526;SDS011;7865;50.918;4.510;2023-05-10T14:25:26;6.93;;;5.43;;
15526;SDS011;7865;50.918;4.510;2023-05-10T14:30:28;8.88;;;6.45;;
15526;SDS011;7865;50.918;4.510;2023-05-10T14:35:30;10.02;;;8.70;;
15526;SDS011;7865;50.918;4.510;2023-05-10T14:40:34;10.07;;;8.32;;
15526;SDS011;7865;50.918;4.510;2023-05-10T14:45:36;13.73;;;9.73;;
15526;SDS011;7865;50.918;4.510;2023-05-10T14:50:37;12.40;;;9.73;;
15526;SDS011;7865;50.918;4.510;2023-05-10T14:55:39;12.15;;;10.60;;
15526;SDS011;7865;50.918;4.510;2023-05-10T15:00:40;14.25;;;9.88;;
15526;SDS011;7865;50.918;4.510;2023-05-10T15:05:42;10.68;;;8.77;;
15526;SDS011;7865;50.918;4.510;2023-05-10T15:10:44;13.85;;;10.32;;
15526;SDS011;7865;50.918;4.510;2023-05-10T15:15:45;29.80;;;11.95;;
15526;SDS011;7865;50.918;4.510;2023-05-10T15:20:47;11.50;;;10.23;;
15526;SDS011;7865;50.918;4.510;2023-05-10T15:25:48;11.60;;;8.90;;
15526;SDS011;7865;50.918;4.510;2023-05-10T15:30:52;11.43;;;6.57;;
15526;SDS011;7865;50.918;4.510;2023-05-10T15:35:54;9.98;;;6.55;;
15526;SDS011;7865;50.918;4.510;2023-05-10T15:40:56;9.82;;;6.50;;
15526;SDS011;7865;50.918;4.510;2023-05-10T15:45:58;11.93;;;7.38;;
15526;SDS011;7865;50.918;4.510;2023-05-10T15:51:00;10.60;;;6.55;;
15526;SDS011;7865;50.918;4.510;2023-05-10T15:56:02;12.75;;;6.32;;
15526;SDS011;7865;50.918;4.510;2023-05-10T16:01:03;9.68;;;6.40;;
15526;SDS011;7865;50.918;4.510;2023-05-10T16:06:08;8.30;;;5.97;;
15526;SDS011;7865;50.918;4.510;2023-05-10T16:11:09;10.07;;;5.90;;
15526;SDS011;7865;50.918;4.510;2023-05-10T16:16:11;11.02;;;5.30;;
15526;SDS011;7865;50.918;4.510;2023-05-10T16:21:12;10.50;;;5.50;;
15526;SDS011;7865;50.918;4.510;2023-05-10T16:26:13;16.25;;;5.22;;
15526;SDS011;7865;50.918;4.510;2023-05-10T16:31:15;10.43;;;5.38;;
15526;SDS011;7865;50.918;4.510;2023-05-10T16:36:18;13.45;;;7.18;;
15526;SDS011;7865;50.918;4.510;2023-05-10T16:41:20;9.75;;;6.75;;
15526;SDS011;7865;50.918;4.510;2023-05-10T16:46:21;13.65;;;8.32;;
15526;SDS011;7865;50.918;4.510;2023-05-10T16:51:22;12.45;;;8.30;;
15526;SDS011;7865;50.918;4.510;2023-05-10T16:56:24;14.00;;;9.27;;
15526;SDS011;7865;50.918;4.510;2023-05-10T17:01:26;14.63;;;9.52;;
15526;SDS011;7865;50.918;4.510;2023-05-10T17:06:28;13.35;;;8.23;;
15526;SDS011;7865;50.918;4.510;2023-05-10T17:11:29;17.83;;;10.43;;
15526;SDS011;7865;50.918;4.510;2023-05-10T17:16:31;14.85;;;8.60;;
15526;SDS011;7865;50.918;4.510;2023-05-10T17:21:33;17.45;;;9.20;;
15526;SDS011;7865;50.918;4.510;2023-05-10T17:26:34;17.98;;;10.40;;
15526;SDS011;7865;50.918;4.510;2023-05-10T17:31:36;16.83;;;10.02;;
15526;SDS011;7865;50.918;4.510;2023-05-10T17:36:38;17.10;;;10.10;;
15526;SDS011;7865;50.918;4.510;2023-05-10T17:41:40;18.48;;;10.18;;
15526;SDS011;7865;50.918;4.510;2023-05-10T17:46:42;19.85;;;9.90;;
15526;SDS011;7865;50.918;4.510;2023-05-10T17:51:43;19.48;;;9.52;;
15526;SDS011;7865;50.918;4.510;2023-05-10T17:56:47;15.43;;;9.75;;
15526;SDS011;7865;50.918;4.510;2023-05-10T18:01:49;20.30;;;11.07;;
15526;SDS011;7865;50.918;4.510;2023-05-10T18:06:53;22.93;;;11.50;;
15526;SDS011;7865;50.918;4.510;2023-05-10T18:12:01;26.03;;;12.07;;
15526;SDS011;7865;50.918;4.510;2023-05-10T18:17:03;26.17;;;12.33;;
15526;SDS011;7865;50.918;4.510;2023-05-10T18:22:05;21.57;;;11.77;;
15526;SDS011;7865;50.918;4.510;2023-05-10T18:27:10;20.00;;;11.93;;
15526;SDS011;7865;50.918;4.510;2023-05-10T18:32:11;21.03;;;12.97;;
15526;SDS011;7865;50.918;4.510;2023-05-10T18:37:13;21.57;;;13.20;;
15526;SDS011;7865;50.918;4.510;2023-05-10T18:42:15;19.63;;;12.03;;
15526;SDS011;7865;50.918;4.510;2023-05-10T18:47:17;23.93;;;13.03;;
15526;SDS011;7865;50.918;4.510;2023-05-10T18:52:19;25.17;;;13.03;;
15526;SDS011;7865;50.918;4.510;2023-05-10T18:57:20;23.27;;;14.10;;
15526;SDS011;7865;50.918;4.510;2023-05-10T19:02:21;21.80;;;14.23;;
15526;SDS011;7865;50.918;4.510;2023-05-10T19:07:25;20.73;;;12.43;;
15526;SDS011;7865;50.918;4.510;2023-05-10T19:12:26;26.83;;;14.30;;
15526;SDS011;7865;50.918;4.510;2023-05-10T19:17:28;20.93;;;13.90;;
15526;SDS011;7865;50.918;4.510;2023-05-10T19:22:31;22.30;;;14.37;;
15526;SDS011;7865;50.918;4.510;2023-05-10T19:27:56;21.87;;;13.93;;
15526;SDS011;7865;50.918;4.510;2023-05-10T19:32:58;23.47;;;14.20;;
15526;SDS011;7865;50.918;4.510;2023-05-10T19:38:00;25.23;;;14.03;;
15526;SDS011;7865;50.918;4.510;2023-05-10T19:43:01;27.43;;;15.97;;
15526;SDS011;7865;50.918;4.510;2023-05-10T19:48:03;27.70;;;15.63;;
15526;SDS011;7865;50.918;4.510;2023-05-10T19:53:05;28.77;;;15.27;;
15526;SDS011;7865;50.918;4.510;2023-05-10T19:58:06;24.13;;;14.83;;
15526;SDS011;7865;50.918;4.510;2023-05-10T20:03:08;29.33;;;18.23;;
15526;SDS011;7865;50.918;4.510;2023-05-10T20:08:10;30.73;;;16.83;;
15526;SDS011;7865;50.918;4.510;2023-05-10T20:13:11;29.60;;;16.70;;
15526;SDS011;7865;50.918;4.510;2023-05-10T20:18:12;28.60;;;16.77;;
15526;SDS011;7865;50.918;4.510;2023-05-10T20:23:14;27.23;;;16.60;;
15526;SDS011;7865;50.918;4.510;2023-05-10T20:28:19;34.20;;;18.50;;
15526;SDS011;7865;50.918;4.510;2023-05-10T20:33:23;29.47;;;17.53;;
15526;SDS011;7865;50.918;4.510;2023-05-10T20:38:25;25.77;;;16.53;;
15526;SDS011;7865;50.918;4.510;2023-05-10T20:43:26;33.83;;;16.97;;
15526;SDS011;7865;50.918;4.510;2023-05-10T20:48:29;32.43;;;16.27;;
15526;SDS011;7865;50.918;4.510;2023-05-10T20:53:33;32.77;;;15.73;;
15526;SDS011;7865;50.918;4.510;2023-05-10T20:58:35;32.90;;;19.10;;
15526;SDS011;7865;50.918;4.510;2023-05-10T21:03:37;31.77;;;18.37;;
15526;SDS011;7865;50.918;4.510;2023-05-10T21:08:38;28.60;;;17.03;;
15526;SDS011;7865;50.918;4.510;2023-05-10T21:13:40;30.63;;;16.50;;
15526;SDS011;7865;50.918;4.510;2023-05-10T21:18:42;28.70;;;16.20;;
15526;SDS011;7865;50.918;4.510;2023-05-10T21:23:47;30.77;;;15.23;;
15526;SDS011;7865;50.918;4.510;2023-05-10T21:28:53;23.63;;;14.30;;
15526;SDS011;7865;50.918;4.510;2023-05-10T21:33:55;25.70;;;15.03;;
15526;SDS011;7865;50.918;4.510;2023-05-10T21:38:56;23.50;;;16.03;;
15526;SDS011;7865;50.918;4.510;2023-05-10T21:43:58;30.47;;;17.67;;
15526;SDS011;7865;50.918;4.510;2023-05-10T21:48:59;29.23;;;17.90;;
15526;SDS011;7865;50.918;4.510;2023-05-10T21:54:01;33.37;;;17.63;;
15526;SDS011;7865;50.918;4.510;2023-05-10T21:59:02;32.50;;;17.23;;
15526;SDS011;7865;50.918;4.510;2023-05-10T22:04:04;32.37;;;17.43;;
15526;SDS011;7865;50.918;4.510;2023-05-10T22:09:05;26.60;;;17.00;;
15526;SDS011;7865;50.918;4.510;2023-05-10T22:14:06;28.57;;;14.80;;
15526;SDS011;7865;50.918;4.510;2023-05-10T22:19:08;28.80;;;16.50;;
15526;SDS011;7865;50.918;4.510;2023-05-10T22:24:10;39.17;;;17.63;;
15526;SDS011;7865;50.918;4.510;2023-05-10T22:29:11;36.87;;;17.50;;
15526;SDS011;7865;50.918;4.510;2023-05-10T22:34:13;31.90;;;17.47;;
15526;SDS011;7865;50.918;4.510;2023-05-10T22:39:14;32.53;;;18.07;;
15526;SDS011;7865;50.918;4.510;2023-05-10T22:44:16;29.20;;;17.93;;
15526;SDS011;7865;50.918;4.510;2023-05-10T22:49:18;32.30;;;18.00;;
15526;SDS011;7865;50.918;4.510;2023-05-10T23:12:37;40.10;;;21.43;;
15526;SDS011;7865;50.918;4.510;2023-05-10T23:17:39;27.97;;;16.03;;
15526;SDS011;7865;50.918;4.510;2023-05-10T23:22:40;23.47;;;14.10;;
15526;SDS011;7865;50.918;4.510;2023-05-10T23:27:42;23.23;;;13.37;;
15526;SDS011;7865;50.918;4.510;2023-05-10T23:32:43;21.77;;;12.57;;
15526;SDS011;7865;50.918;4.510;2023-05-10T23:37:45;26.57;;;13.20;;
15526;SDS011;7865;50.918;4.510;2023-05-10T23:42:46;24.30;;;13.07;;
15526;SDS011;7865;50.918;4.510;2023-05-10T23:47:48;25.27;;;14.73;;
15526;SDS011;7865;50.918;4.510;2023-05-10T23:52:49;25.30;;;15.93;;
15526;SDS011;7865;50.918;4.510;2023-05-10T23:57:51;29.50;;;16.27;;
